createdAt,value
2023-04-18T00:01:40.475Z,97441.45
2023-04-18T00:04:09.322Z,97442.02
2023-04-18T00:06:37.796Z,97441.13
2023-04-18T00:09:06.221Z,97443.86
2023-04-18T00:11:35.072Z,97446.90
2023-04-18T00:14:03.379Z,97452.27
2023-04-18T00:16:32.500Z,97451.85
2023-04-18T00:19:02.446Z,97450.39
2023-04-18T00:21:32.030Z,97450.27
2023-04-18T00:24:00.459Z,97456.52
2023-04-18T00:26:28.524Z,97459.80
2023-04-18T00:28:57.904Z,97464.88
2023-04-18T00:31:26.092Z,97464.13
2023-04-18T00:33:54.488Z,97469.90
2023-04-18T00:36:24.720Z,97469.73
2023-04-18T00:38:52.758Z,97470.06
2023-04-18T00:41:22.346Z,97468.30
2023-04-18T00:43:50.407Z,97470.30
2023-04-18T00:46:18.396Z,97471.80
2023-04-18T00:48:47.861Z,97467.70
2023-04-18T00:51:16.020Z,97468.59
2023-04-18T00:53:44.709Z,97473.68
2023-04-18T00:56:12.884Z,97474.41
2023-04-18T00:58:41.096Z,97469.02
2023-04-18T01:01:09.612Z,97467.15
2023-04-18T01:03:39.687Z,97465.20
2023-04-18T01:06:08.900Z,97459.45
2023-04-18T01:08:37.352Z,97461.02
2023-04-18T01:11:06.407Z,97461.05
2023-04-18T01:13:34.345Z,97460.23
2023-04-18T01:16:05.195Z,97457.06
2023-04-18T01:18:35.117Z,97457.80
2023-04-18T01:21:06.276Z,97462.04
2023-04-18T01:23:34.515Z,97461.71
2023-04-18T01:26:04.767Z,97461.80
2023-04-18T01:28:36.592Z,97462.94
2023-04-18T01:31:05.232Z,97465.71
2023-04-18T01:33:33.334Z,97463.55
2023-04-18T01:36:01.678Z,97460.39
2023-04-18T01:38:33.157Z,97461.81
2023-04-18T01:41:02.581Z,97459.98
2023-04-18T01:43:30.653Z,97460.34
2023-04-18T01:45:58.598Z,97460.34
2023-04-18T01:48:26.600Z,97458.43
2023-04-18T01:50:54.613Z,97454.30
2023-04-18T01:53:24.107Z,97453.84
2023-04-18T01:55:52.131Z,97453.34
2023-04-18T01:58:23.765Z,97454.75
2023-04-18T02:00:57.342Z,97452.39
2023-04-18T02:03:25.804Z,97452.99
2023-04-18T02:05:54.215Z,97454.90
2023-04-18T02:08:22.455Z,97451.95
2023-04-18T02:10:50.701Z,97449.58
2023-04-18T02:13:19.304Z,97449.41
2023-04-18T02:15:47.416Z,97449.06
2023-04-18T02:18:17.592Z,97448.15
2023-04-18T02:20:45.871Z,97446.48
2023-04-18T02:23:14.018Z,97446.13
2023-04-18T02:25:41.936Z,97448.29
2023-04-18T02:28:10.769Z,97444.95
2023-04-18T02:30:38.747Z,97444.98
2023-04-18T02:33:06.854Z,97445.04
2023-04-18T02:35:35.278Z,97444.69
2023-04-18T02:38:03.284Z,97442.55
2023-04-18T02:40:31.269Z,97442.66
2023-04-18T02:43:02.222Z,97442.84
2023-04-18T02:45:30.519Z,97443.81
2023-04-18T02:47:59.933Z,97447.15
2023-04-18T02:50:29.136Z,97451.67
2023-04-18T02:52:57.543Z,97454.69
2023-04-18T02:55:30.453Z,97454.87
2023-04-18T02:57:59.769Z,97454.31
2023-04-18T03:01:00.098Z,97450.42
2023-04-18T03:03:46.072Z,97451.23
2023-04-18T03:06:27.774Z,97451.23
2023-04-18T03:08:56.325Z,97446.33
2023-04-18T03:11:25.340Z,97449.67
2023-04-18T03:13:54.092Z,97454.13
2023-04-18T03:16:22.493Z,97452.67
2023-04-18T03:18:50.856Z,97454.22
2023-04-18T03:21:19.570Z,97458.02
2023-04-18T03:23:47.713Z,97462.88
2023-04-18T03:26:16.173Z,97457.70
2023-04-18T03:28:45.559Z,97458.55
2023-04-18T03:31:13.804Z,97458.65
2023-04-18T03:33:44.242Z,97459.81
2023-04-18T03:36:17.414Z,97455.42
2023-04-18T03:38:45.660Z,97451.88
2023-04-18T03:41:13.777Z,97452.41
2023-04-18T03:43:42.863Z,97449.11
2023-04-18T03:46:10.971Z,97452.26
2023-04-18T03:48:39.243Z,97449.61
2023-04-18T03:51:11.316Z,97457.79
2023-04-18T03:53:39.881Z,97459.45
2023-04-18T03:56:08.354Z,97465.91
2023-04-18T03:58:47.965Z,97468.94
2023-04-18T04:01:17.357Z,97470.67
2023-04-18T04:03:45.556Z,97469.33
2023-04-18T04:06:14.160Z,97471.50
2023-04-18T04:08:42.153Z,97477.98
2023-04-18T04:11:12.002Z,97476.95
2023-04-18T04:13:40.119Z,97477.40
2023-04-18T04:16:08.554Z,97479.23
2023-04-18T04:18:37.346Z,97484.95
2023-04-18T04:21:06.026Z,97482.14
2023-04-18T04:23:48.139Z,97485.34
2023-04-18T04:26:26.294Z,97488.41
2023-04-18T04:29:01.108Z,97492.66
2023-04-18T04:31:29.459Z,97496.41
2023-04-18T04:33:57.789Z,97496.52
2023-04-18T04:36:27.298Z,97496.47
2023-04-18T04:38:57.268Z,97495.84
2023-04-18T04:41:32.689Z,97497.56
2023-04-18T04:44:01.994Z,97499.50
2023-04-18T04:46:32.641Z,97495.05
2023-04-18T04:49:01.057Z,97497.31
2023-04-18T04:51:29.547Z,97494.23
2023-04-18T04:53:58.201Z,97492.02
2023-04-18T04:56:26.323Z,97492.42
2023-04-18T04:58:56.203Z,97497.95
2023-04-18T05:01:34.485Z,97497.44
2023-04-18T05:04:03.213Z,97494.42
2023-04-18T05:06:31.936Z,97495.77
2023-04-18T05:09:01.239Z,97498.92
2023-04-18T05:11:29.400Z,97500.79
2023-04-18T05:13:57.402Z,97499.51
2023-04-18T05:16:25.454Z,97503.63
2023-04-18T05:18:53.425Z,97506.73
2023-04-18T05:21:21.482Z,97512.28
2023-04-18T05:23:49.561Z,97514.46
2023-04-18T05:26:18.889Z,97513.45
2023-04-18T05:28:48.808Z,97519.20
2023-04-18T05:31:16.992Z,97518.16
2023-04-18T05:33:46.219Z,97518.11
2023-04-18T05:36:14.261Z,97517.69
2023-04-18T05:38:42.714Z,97520.77
2023-04-18T05:41:10.771Z,97520.37
2023-04-18T05:43:39.238Z,97519.22
2023-04-18T05:46:07.485Z,97520.20
2023-04-18T05:48:35.981Z,97516.16
2023-04-18T05:51:05.470Z,97513.61
2023-04-18T05:53:34.677Z,97515.60
2023-04-18T05:56:02.802Z,97517.11
2023-04-18T05:58:30.806Z,97519.58
2023-04-18T06:00:59.183Z,97520.90
2023-04-18T06:03:29.006Z,97522.07
2023-04-18T06:05:58.705Z,97521.14
2023-04-18T06:08:27.372Z,97520.34
2023-04-18T06:10:55.737Z,97523.04
2023-04-18T06:13:23.781Z,97525.09
2023-04-18T06:15:51.962Z,97524.56
2023-04-18T06:18:20.059Z,97524.46
2023-04-18T06:20:48.172Z,97518.27
2023-04-18T06:23:16.751Z,97516.86
2023-04-18T06:25:45.809Z,97519.47
2023-04-18T06:28:15.218Z,97515.67
2023-04-18T06:30:43.614Z,97511.84
2023-04-18T06:33:12.100Z,97509.81
2023-04-18T06:35:40.415Z,97509.13
2023-04-18T06:38:12.027Z,97511.20
2023-04-18T06:40:40.166Z,97511.11
2023-04-18T06:43:08.244Z,97512.86
2023-04-18T06:45:36.703Z,97514.13
2023-04-18T06:48:05.583Z,97512.13
2023-04-18T06:50:33.640Z,97513.20
2023-04-18T06:53:02.374Z,97513.23
2023-04-18T06:55:30.718Z,97512.95
2023-04-18T06:58:00.567Z,97511.24
2023-04-18T07:00:28.860Z,97511.81
2023-04-18T07:02:57.672Z,97511.71
2023-04-18T07:05:26.379Z,97512.45
2023-04-18T07:07:54.452Z,97514.12
2023-04-18T07:10:38.295Z,97514.91
2023-04-18T07:13:11.002Z,97516.70
2023-04-18T07:15:39.384Z,97515.60
2023-04-18T07:18:07.804Z,97518.66
2023-04-18T07:20:36.019Z,97522.13
2023-04-18T07:23:04.893Z,97522.17
2023-04-18T07:25:33.300Z,97519.05
2023-04-18T07:28:01.490Z,97520.45
2023-04-18T07:30:30.401Z,97522.19
2023-04-18T07:32:58.551Z,97520.88
2023-04-18T07:35:26.984Z,97517.77
2023-04-18T07:38:00.742Z,97519.57
2023-04-18T07:40:28.819Z,97521.19
2023-04-18T07:42:57.030Z,97520.62
2023-04-18T07:45:25.879Z,97520.87
2023-04-18T07:47:54.166Z,97521.52
2023-04-18T07:50:24.339Z,97518.67
2023-04-18T07:52:52.432Z,97515.25
2023-04-18T07:55:21.903Z,97513.79
2023-04-18T07:57:53.472Z,97512.89
2023-04-18T08:00:21.662Z,97516.13
2023-04-18T08:02:51.393Z,97512.36
2023-04-18T08:05:20.635Z,97512.70
2023-04-18T08:07:49.247Z,97514.43
2023-04-18T08:10:17.356Z,97514.75
2023-04-18T08:12:46.146Z,97510.20
2023-04-18T08:15:14.427Z,97510.71
2023-04-18T08:17:45.887Z,97512.11
2023-04-18T08:20:14.169Z,97508.05
2023-04-18T08:22:57.450Z,97507.84
2023-04-18T08:25:31.946Z,97509.28
2023-04-18T08:28:00.367Z,97509.52
2023-04-18T08:30:29.191Z,97501.48
2023-04-18T08:33:02.310Z,97499.69
2023-04-18T08:35:38.069Z,97503.32
2023-04-18T08:38:07.919Z,97501.30
2023-04-18T08:40:38.772Z,97499.02
2023-04-18T08:43:12.387Z,97500.63
2023-04-18T08:45:44.870Z,97503.29
2023-04-18T08:48:18.462Z,97505.55
2023-04-18T08:50:47.797Z,97501.66
2023-04-18T08:53:17.967Z,97501.94
2023-04-18T08:55:47.789Z,97503.02
2023-04-18T08:58:23.003Z,97499.17
2023-04-18T09:00:55.277Z,97492.07
2023-04-18T09:03:39.189Z,97493.27
2023-04-18T09:06:16.000Z,97491.64
2023-04-18T09:08:44.800Z,97492.05
2023-04-18T09:11:29.096Z,97490.13
2023-04-18T09:13:59.008Z,97486.20
2023-04-18T09:16:28.432Z,97489.02
2023-04-18T09:19:39.671Z,97496.02
2023-04-18T09:22:09.973Z,97495.39
2023-04-18T09:24:38.760Z,97492.19
2023-04-18T09:27:15.746Z,97491.62
2023-04-18T09:29:52.409Z,97488.22
2023-04-18T09:32:30.814Z,97489.39
2023-04-18T09:35:03.926Z,97492.30
2023-04-18T09:37:32.912Z,97491.09
2023-04-18T09:40:01.261Z,97489.86
2023-04-18T09:42:37.297Z,97485.37
2023-04-18T09:45:08.374Z,97490.24
2023-04-18T09:47:37.587Z,97487.11
2023-04-18T09:50:09.128Z,97484.46
2023-04-18T09:52:39.645Z,97480.57
2023-04-18T09:55:10.507Z,97481.39
2023-04-18T09:57:44.451Z,97484.04
2023-04-18T10:00:24.185Z,97485.05
2023-04-18T10:02:58.078Z,97483.73
2023-04-18T10:05:32.306Z,97482.10
2023-04-18T10:08:01.147Z,97484.27
2023-04-18T10:10:30.139Z,97478.27
2023-04-18T10:13:01.469Z,97476.88
2023-04-18T10:15:31.360Z,97480.73
2023-04-18T10:18:19.157Z,97475.81
2023-04-18T10:20:47.259Z,97472.17
2023-04-18T10:23:37.959Z,97471.94
2023-04-18T10:26:12.471Z,97473.15
2023-04-18T10:28:58.948Z,97476.09
2023-04-18T10:31:29.650Z,97478.39
2023-04-18T10:36:31.096Z,97472.98
2023-04-18T10:39:21.195Z,97471.00
2023-04-18T10:41:51.737Z,97467.83
2023-04-18T10:44:41.428Z,97468.73
2023-04-18T10:47:11.428Z,97466.02
2023-04-18T10:49:39.750Z,97466.64
2023-04-18T10:52:08.785Z,97460.50
2023-04-18T10:54:59.187Z,97460.84
2023-04-18T10:57:38.917Z,97458.50
2023-04-18T11:00:14.129Z,97452.48
2023-04-18T11:02:50.746Z,97456.51
2023-04-18T11:05:28.997Z,97453.16
2023-04-18T11:07:58.179Z,97457.30
2023-04-18T11:10:27.818Z,97453.55
2023-04-18T11:12:56.791Z,97448.73
2023-04-18T11:15:27.972Z,97445.95
2023-04-18T11:17:59.602Z,97444.27
2023-04-18T11:20:38.057Z,97444.91
2023-04-18T11:23:21.077Z,97446.23
2023-04-18T11:25:54.578Z,97446.11
2023-04-18T11:28:25.125Z,97443.40
2023-04-18T11:31:02.916Z,97443.34
2023-04-18T11:33:31.841Z,97441.81
2023-04-18T11:36:00.389Z,97434.91
2023-04-18T11:38:31.323Z,97431.61
2023-04-18T11:41:05.164Z,97431.45
2023-04-18T11:43:33.689Z,97431.63
2023-04-18T11:46:03.725Z,97429.16
2023-04-18T11:48:40.713Z,97424.81
2023-04-18T11:51:34.504Z,97423.55
2023-04-18T11:54:02.659Z,97419.89
2023-04-18T11:56:32.269Z,97422.21
2023-04-18T11:59:09.484Z,97418.65
2023-04-18T12:01:39.353Z,97409.94
2023-04-18T12:04:10.592Z,97414.61
2023-04-18T12:06:53.765Z,97413.83
2023-04-18T12:09:25.745Z,97406.30
2023-04-18T12:12:01.637Z,97398.62
2023-04-18T12:14:30.571Z,97394.46
2023-04-18T12:16:59.046Z,97392.29
2023-04-18T12:19:28.462Z,97394.50
2023-04-18T12:22:05.204Z,97392.30
2023-04-18T12:24:33.902Z,97389.70
2023-04-18T12:27:02.071Z,97390.45
2023-04-18T12:29:30.316Z,97388.58
2023-04-18T12:31:58.685Z,97387.33
2023-04-18T12:34:26.893Z,97385.21
2023-04-18T12:36:57.894Z,97385.83
2023-04-18T12:39:28.540Z,97386.65
2023-04-18T12:41:57.870Z,97380.26
2023-04-18T12:44:25.995Z,97385.62
2023-04-18T12:46:57.540Z,97383.39
2023-04-18T12:49:25.905Z,97379.74
2023-04-18T12:51:54.153Z,97378.68
2023-04-18T12:54:22.416Z,97379.15
2023-04-18T12:56:50.505Z,97377.73
2023-04-18T12:59:18.785Z,97372.02
2023-04-18T13:01:46.950Z,97378.52
2023-04-18T13:04:16.816Z,97375.15
2023-04-18T13:06:49.355Z,97374.30
2023-04-18T13:09:17.532Z,97371.95
2023-04-18T13:11:48.272Z,97369.77
2023-04-18T13:15:14.724Z,97369.75
2023-04-18T13:18:09.572Z,97369.27
2023-04-18T13:20:49.749Z,97366.16
2023-04-18T13:23:17.872Z,97363.98
2023-04-18T13:25:46.007Z,97363.22
2023-04-18T13:28:14.234Z,97359.44
2023-04-18T13:30:44.742Z,97358.65
2023-04-18T13:33:17.068Z,97357.45
2023-04-18T13:35:45.079Z,97359.13
2023-04-18T13:38:13.109Z,97357.93
2023-04-18T13:40:41.158Z,97356.14
2023-04-18T13:43:10.990Z,97355.10
2023-04-18T13:45:40.161Z,97355.50
2023-04-18T13:48:08.358Z,97355.59
2023-04-18T13:50:38.115Z,97357.60
2023-04-18T13:53:06.399Z,97355.23
2023-04-18T13:55:35.148Z,97347.29
2023-04-18T13:58:03.125Z,97344.89
2023-04-18T14:00:31.646Z,97343.91
2023-04-18T14:02:59.974Z,97343.45
2023-04-18T14:05:28.531Z,97343.54
2023-04-18T14:08:02.360Z,97338.27
2023-04-18T14:10:31.398Z,97333.70
2023-04-18T14:12:59.411Z,97334.14
2023-04-18T14:15:28.309Z,97334.16
2023-04-18T14:17:56.929Z,97333.46
2023-04-18T14:20:26.827Z,97332.30
2023-04-18T14:22:55.885Z,97332.96
2023-04-18T14:25:23.981Z,97332.43
2023-04-18T14:28:05.145Z,97329.30
2023-04-18T14:30:34.116Z,97333.05
2023-04-18T14:33:03.937Z,97333.06
2023-04-18T14:35:32.872Z,97334.64
2023-04-18T14:38:03.305Z,97333.31
2023-04-18T14:40:32.926Z,97327.60
2023-04-18T14:43:01.574Z,97327.33
2023-04-18T14:45:34.089Z,97326.73
2023-04-18T14:48:04.514Z,97327.70
2023-04-18T14:50:33.075Z,97324.88
2023-04-18T14:53:01.265Z,97326.65
2023-04-18T14:55:30.176Z,97322.72
2023-04-18T14:57:58.540Z,97326.89
2023-04-18T15:00:27.248Z,97323.31
2023-04-18T15:02:56.924Z,97323.17
2023-04-18T15:05:24.993Z,97328.70
2023-04-18T15:07:54.318Z,97327.02
2023-04-18T15:10:22.661Z,97322.79
2023-04-18T15:12:51.450Z,97317.93
2023-04-18T15:15:19.831Z,97315.77
2023-04-18T15:17:48.076Z,97318.73
2023-04-18T15:20:17.948Z,97324.23
2023-04-18T15:22:46.205Z,97324.85
2023-04-18T15:25:16.499Z,97327.77
2023-04-18T15:27:44.681Z,97330.14
2023-04-18T15:30:16.304Z,97331.73
2023-04-18T15:32:45.736Z,97332.83
2023-04-18T15:35:14.134Z,97337.23
2023-04-18T15:37:42.275Z,97333.84
2023-04-18T15:40:11.441Z,97332.85
2023-04-18T15:42:39.535Z,97328.14
2023-04-18T15:45:08.464Z,97324.39
2023-04-18T15:47:36.684Z,97325.95
2023-04-18T15:50:08.979Z,97327.23
2023-04-18T15:52:41.566Z,97330.50
2023-04-18T15:55:13.954Z,97327.98
2023-04-18T15:57:42.750Z,97328.93
2023-04-18T16:00:20.920Z,97327.13
2023-04-18T16:02:49.369Z,97325.58
2023-04-18T16:05:17.560Z,97328.20
2023-04-18T16:07:46.514Z,97331.36
2023-04-18T16:10:15.397Z,97331.13
2023-04-18T16:13:03.665Z,97331.50
2023-04-18T16:15:32.091Z,97329.83
2023-04-18T16:18:00.413Z,97335.90
2023-04-18T16:20:28.714Z,97336.60
2023-04-18T16:22:56.828Z,97336.14
2023-04-18T16:25:27.192Z,97336.80
2023-04-18T16:27:55.351Z,97340.58
2023-04-18T16:30:24.558Z,97339.31
2023-04-18T16:32:52.866Z,97340.52
2023-04-18T16:35:22.708Z,97341.88
2023-04-18T16:37:51.066Z,97340.93
2023-04-18T16:40:19.196Z,97344.86
2023-04-18T16:42:47.305Z,97348.52
2023-04-18T16:45:17.401Z,97348.75
2023-04-18T16:47:45.762Z,97349.94
2023-04-18T16:50:14.125Z,97351.89
2023-04-18T16:52:42.495Z,97354.14
2023-04-18T16:55:11.191Z,97353.31
2023-04-18T16:57:39.266Z,97354.05
2023-04-18T17:00:12.276Z,97356.05
2023-04-18T17:02:43.410Z,97352.71
2023-04-18T17:05:11.675Z,97354.70
2023-04-18T17:07:39.625Z,97354.93
2023-04-18T17:10:10.573Z,97356.39
2023-04-18T17:12:39.307Z,97354.38
2023-04-18T17:15:08.184Z,97356.99
2023-04-18T17:17:36.251Z,97354.50
2023-04-18T17:20:07.891Z,97354.50
2023-04-18T17:22:36.154Z,97353.92
2023-04-18T17:25:06.336Z,97358.86
2023-04-18T17:27:34.380Z,97354.41
2023-04-18T17:30:02.608Z,97355.88
2023-04-18T17:32:30.894Z,97353.70
2023-04-18T17:34:58.992Z,97357.33
2023-04-18T17:37:30.821Z,97360.55
2023-04-18T17:40:01.421Z,97363.06
2023-04-18T17:42:29.492Z,97364.99
2023-04-18T17:45:02.698Z,97366.77
2023-04-18T17:47:32.887Z,97367.98
2023-04-18T17:50:01.679Z,97370.52
2023-04-18T17:52:30.539Z,97369.52
2023-04-18T17:54:59.402Z,97367.70
2023-04-18T17:57:30.552Z,97367.83
2023-04-18T17:59:59.026Z,97367.23
2023-04-18T18:02:28.465Z,97367.64
2023-04-18T18:05:00.521Z,97365.71
2023-04-18T18:07:28.772Z,97369.63
2023-04-18T18:09:57.941Z,97369.36
2023-04-18T18:12:27.517Z,97371.71
2023-04-18T18:14:57.452Z,97370.95
2023-04-18T18:17:28.395Z,97372.23
2023-04-18T18:19:56.633Z,97371.77
2023-04-18T18:22:26.220Z,97374.26
2023-04-18T18:24:59.218Z,97373.56
2023-04-18T18:27:30.167Z,97371.98
2023-04-18T18:29:58.136Z,97376.64
2023-04-18T18:32:27.077Z,97375.38
2023-04-18T18:34:55.970Z,97371.36
2023-04-18T18:37:26.108Z,97373.48
2023-04-18T18:39:56.452Z,97375.84
2023-04-18T18:42:25.078Z,97375.27
2023-04-18T18:44:53.766Z,97377.29
2023-04-18T18:47:21.837Z,97374.55
2023-04-18T18:49:49.923Z,97376.34
2023-04-18T18:52:20.046Z,97376.56
2023-04-18T18:54:48.972Z,97375.23
2023-04-18T18:57:17.049Z,97377.40
2023-04-18T18:59:45.011Z,97376.59
2023-04-18T19:02:13.261Z,97374.33
2023-04-18T19:04:41.819Z,97374.15
2023-04-18T19:07:10.068Z,97374.33
2023-04-18T19:09:38.094Z,97375.11
2023-04-18T19:12:06.748Z,97370.92
2023-04-18T19:14:34.774Z,97371.53
2023-04-18T19:17:02.868Z,97371.37
2023-04-18T19:19:31.132Z,97374.02
2023-04-18T19:22:01.376Z,97370.47
2023-04-18T19:24:32.008Z,97372.18
2023-04-18T19:27:01.123Z,97370.48
2023-04-18T19:29:31.908Z,97372.18
2023-04-18T19:32:00.981Z,97373.41
2023-04-18T19:34:29.356Z,97373.72
2023-04-18T19:36:57.301Z,97376.71
2023-04-18T19:39:25.410Z,97376.73
2023-04-18T19:41:54.593Z,97380.63
2023-04-18T19:44:23.162Z,97382.13
2023-04-18T19:46:51.628Z,97385.48
2023-04-18T19:49:23.212Z,97385.95
2023-04-18T19:51:52.567Z,97385.41
2023-04-18T19:54:22.097Z,97385.39
2023-04-18T19:56:53.487Z,97386.05
2023-04-18T19:59:21.562Z,97386.85
2023-04-18T20:01:50.968Z,97384.33
2023-04-18T20:04:19.148Z,97386.15
2023-04-18T20:06:47.399Z,97389.94
2023-04-18T20:09:16.950Z,97389.26
2023-04-18T20:11:46.632Z,97389.59
2023-04-18T20:14:14.653Z,97388.73
2023-04-18T20:16:42.881Z,97388.17
2023-04-18T20:19:12.699Z,97388.34
2023-04-18T20:21:41.939Z,97392.15
2023-04-18T20:24:11.548Z,97395.60
2023-04-18T20:26:40.223Z,97396.61
2023-04-18T20:29:08.392Z,97398.21
2023-04-18T20:31:42.947Z,97397.90
2023-04-18T20:34:11.099Z,97398.40
2023-04-18T20:36:41.625Z,97398.05
2023-04-18T20:39:09.764Z,97396.81
2023-04-18T20:41:49.340Z,97396.36
2023-04-18T20:44:21.026Z,97396.68
2023-04-18T20:46:49.778Z,97396.17
2023-04-18T20:49:18.382Z,97389.31
2023-04-18T20:51:46.465Z,97391.34
2023-04-18T20:54:14.822Z,97392.81
2023-04-18T20:56:43.083Z,97390.77
2023-04-18T20:59:11.252Z,97390.35
2023-04-18T21:01:39.401Z,97385.63
2023-04-18T21:04:08.493Z,97385.52
2023-04-18T21:06:37.308Z,97389.34
2023-04-18T21:09:05.420Z,97392.13
2023-04-18T21:11:34.240Z,97391.52
2023-04-18T21:14:03.883Z,97387.45
2023-04-18T21:16:31.990Z,97387.08
2023-04-18T21:19:00.118Z,97383.30
2023-04-18T21:21:28.388Z,97383.63
2023-04-18T21:23:56.394Z,97382.12
2023-04-18T21:26:24.532Z,97380.27
2023-04-18T21:29:02.788Z,97377.85
2023-04-18T21:31:32.976Z,97374.27
2023-04-18T21:34:04.184Z,97371.52
2023-04-18T21:36:32.625Z,97372.27
2023-04-18T21:39:01.303Z,97374.36
2023-04-18T21:41:30.080Z,97376.95
2023-04-18T21:43:58.118Z,97381.66
2023-04-18T21:46:26.437Z,97379.67
2023-04-18T21:48:54.570Z,97382.70
2023-04-18T21:51:22.588Z,97379.60
2023-04-18T21:53:50.759Z,97380.95
2023-04-18T21:56:18.743Z,97382.73
2023-04-18T21:58:46.881Z,97380.02
2023-04-18T22:01:14.906Z,97378.30
2023-04-18T22:03:45.572Z,97378.98
2023-04-18T22:06:13.821Z,97377.45
2023-04-18T22:08:43.234Z,97376.33
2023-04-18T22:11:11.867Z,97377.13
2023-04-18T22:13:39.926Z,97375.44
2023-04-18T22:16:09.512Z,97371.70
2023-04-18T22:18:38.148Z,97370.14
2023-04-18T22:21:06.791Z,97369.27
2023-04-18T22:23:35.347Z,97366.59
2023-04-18T22:26:03.352Z,97365.49
2023-04-18T22:28:32.412Z,97366.44
2023-04-18T22:31:00.554Z,97365.84
2023-04-18T22:33:28.759Z,97366.61
2023-04-18T22:35:56.971Z,97367.77
2023-04-18T22:38:25.274Z,97362.82
2023-04-18T22:40:53.279Z,97360.98
2023-04-18T22:43:23.709Z,97364.00
2023-04-18T22:45:51.932Z,97365.02
2023-04-18T22:48:20.242Z,97358.67
2023-04-18T22:50:49.952Z,97357.30
2023-04-18T22:53:18.307Z,97355.80
2023-04-18T22:55:46.731Z,97353.23
2023-04-18T22:58:15.121Z,97350.77
2023-04-18T23:00:43.231Z,97347.39
2023-04-18T23:03:11.650Z,97348.48
2023-04-18T23:05:40.853Z,97346.52
2023-04-18T23:08:09.714Z,97343.30
2023-04-18T23:10:38.234Z,97336.21
2023-04-18T23:13:06.167Z,97331.14
2023-04-18T23:15:34.144Z,97330.04
2023-04-18T23:18:02.305Z,97329.23
2023-04-18T23:20:30.406Z,97325.57
2023-04-18T23:22:58.716Z,97327.60
2023-04-18T23:25:26.926Z,97324.05
2023-04-18T23:27:54.898Z,97320.56
2023-04-18T23:30:23.036Z,97315.02
2023-04-18T23:32:51.056Z,97313.90
2023-04-18T23:35:19.296Z,97310.15
2023-04-18T23:37:47.347Z,97309.04
2023-04-18T23:40:15.948Z,97309.48
2023-04-18T23:42:44.247Z,97307.08
2023-04-18T23:45:12.356Z,97307.34
2023-04-18T23:47:40.409Z,97303.88
2023-04-18T23:50:09.394Z,97300.63
2023-04-18T23:52:38.636Z,97298.64
2023-04-18T23:55:07.431Z,97293.04
2023-04-18T23:57:35.880Z,97292.73
